sensor_id;sensor_type;location;lat;lon;timestamp;P1;durP1;ratioP1;P2;durP2;ratioP2
3997;SDS011;61314;53.444;9.902;2023-02-17T00:00:09;64.40;;;42.63;;
3997;SDS011;61314;53.444;9.902;2023-02-17T00:02:37;59.78;;;42.13;;
3997;SDS011;61314;53.444;9.902;2023-02-17T00:05:04;60.38;;;41.65;;
3997;SDS011;61314;53.444;9.902;2023-02-17T00:07:32;55.65;;;42.15;;
3997;SDS011;61314;53.444;9.902;2023-02-17T00:09:59;58.03;;;41.13;;
3997;SDS011;61314;53.444;9.902;2023-02-17T00:12:26;55.20;;;38.95;;
3997;SDS011;61314;53.444;9.902;2023-02-17T00:14:53;57.90;;;40.70;;
3997;SDS011;61314;53.444;9.902;2023-02-17T00:17:20;61.05;;;42.50;;
3997;SDS011;61314;53.444;9.902;2023-02-17T00:19:47;54.67;;;40.83;;
3997;SDS011;61314;53.444;9.902;2023-02-17T00:22:14;60.88;;;42.20;;
3997;SDS011;61314;53.444;9.902;2023-02-17T00:24:41;59.92;;;41.45;;
3997;SDS011;61314;53.444;9.902;2023-02-17T00:27:08;56.90;;;41.17;;
3997;SDS011;61314;53.444;9.902;2023-02-17T00:29:35;63.08;;;42.42;;
3997;SDS011;61314;53.444;9.902;2023-02-17T00:32:02;60.92;;;42.08;;
3997;SDS011;61314;53.444;9.902;2023-02-17T00:34:30;56.25;;;39.85;;
3997;SDS011;61314;53.444;9.902;2023-02-17T00:36:57;54.47;;;38.55;;
3997;SDS011;61314;53.444;9.902;2023-02-17T00:39:24;50.92;;;38.65;;
3997;SDS011;61314;53.444;9.902;2023-02-17T00:41:51;52.38;;;36.45;;
3997;SDS011;61314;53.444;9.902;2023-02-17T00:44:19;61.03;;;39.42;;
3997;SDS011;61314;53.444;9.902;2023-02-17T00:46:47;56.28;;;38.22;;
3997;SDS011;61314;53.444;9.902;2023-02-17T00:49:15;54.55;;;39.13;;
3997;SDS011;61314;53.444;9.902;2023-02-17T00:51:43;53.72;;;37.78;;
3997;SDS011;61314;53.444;9.902;2023-02-17T00:54:10;59.58;;;41.35;;
3997;SDS011;61314;53.444;9.902;2023-02-17T00:56:37;53.75;;;39.65;;
3997;SDS011;61314;53.444;9.902;2023-02-17T00:59:04;51.95;;;38.08;;
3997;SDS011;61314;53.444;9.902;2023-02-17T01:01:32;52.63;;;39.00;;
3997;SDS011;61314;53.444;9.902;2023-02-17T01:03:59;58.03;;;40.22;;
3997;SDS011;61314;53.444;9.902;2023-02-17T01:06:27;54.20;;;37.67;;
3997;SDS011;61314;53.444;9.902;2023-02-17T01:08:55;54.60;;;41.30;;
3997;SDS011;61314;53.444;9.902;2023-02-17T01:11:23;51.15;;;37.13;;
3997;SDS011;61314;53.444;9.902;2023-02-17T01:13:51;54.75;;;38.92;;
3997;SDS011;61314;53.444;9.902;2023-02-17T01:16:26;52.33;;;38.20;;
3997;SDS011;61314;53.444;9.902;2023-02-17T01:18:53;56.38;;;39.55;;
3997;SDS011;61314;53.444;9.902;2023-02-17T01:21:22;51.22;;;37.65;;
3997;SDS011;61314;53.444;9.902;2023-02-17T01:23:54;57.33;;;38.38;;
3997;SDS011;61314;53.444;9.902;2023-02-17T01:26:22;49.65;;;36.63;;
3997;SDS011;61314;53.444;9.902;2023-02-17T01:28:50;54.10;;;39.53;;
3997;SDS011;61314;53.444;9.902;2023-02-17T01:31:18;52.22;;;37.90;;
3997;SDS011;61314;53.444;9.902;2023-02-17T01:33:45;55.03;;;37.50;;
3997;SDS011;61314;53.444;9.902;2023-02-17T01:36:13;49.78;;;37.70;;
3997;SDS011;61314;53.444;9.902;2023-02-17T01:38:40;58.28;;;38.72;;
3997;SDS011;61314;53.444;9.902;2023-02-17T01:41:07;51.92;;;37.40;;
3997;SDS011;61314;53.444;9.902;2023-02-17T01:43:34;51.03;;;36.60;;
3997;SDS011;61314;53.444;9.902;2023-02-17T01:46:02;49.50;;;35.83;;
3997;SDS011;61314;53.444;9.902;2023-02-17T01:48:39;50.40;;;35.80;;
3997;SDS011;61314;53.444;9.902;2023-02-17T01:51:10;46.35;;;35.50;;
3997;SDS011;61314;53.444;9.902;2023-02-17T01:53:43;43.55;;;33.15;;
3997;SDS011;61314;53.444;9.902;2023-02-17T01:56:12;45.08;;;32.58;;
3997;SDS011;61314;53.444;9.902;2023-02-17T01:58:40;45.78;;;34.08;;
3997;SDS011;61314;53.444;9.902;2023-02-17T02:01:08;47.50;;;34.60;;
3997;SDS011;61314;53.444;9.902;2023-02-17T02:03:35;51.67;;;35.33;;
3997;SDS011;61314;53.444;9.902;2023-02-17T02:06:04;46.90;;;33.20;;
3997;SDS011;61314;53.444;9.902;2023-02-17T02:08:33;42.58;;;33.20;;
3997;SDS011;61314;53.444;9.902;2023-02-17T02:11:03;47.80;;;33.10;;
3997;SDS011;61314;53.444;9.902;2023-02-17T02:13:31;47.70;;;33.17;;
3997;SDS011;61314;53.444;9.902;2023-02-17T02:16:10;44.38;;;32.80;;
3997;SDS011;61314;53.444;9.902;2023-02-17T02:21:21;40.33;;;30.92;;
3997;SDS011;61314;53.444;9.902;2023-02-17T02:24:08;42.42;;;32.40;;
3997;SDS011;61314;53.444;9.902;2023-02-17T02:26:48;40.33;;;30.42;;
3997;SDS011;61314;53.444;9.902;2023-02-17T02:29:33;40.20;;;29.00;;
3997;SDS011;61314;53.444;9.902;2023-02-17T02:34:54;38.22;;;28.70;;
3997;SDS011;61314;53.444;9.902;2023-02-17T02:37:35;35.38;;;26.35;;
3997;SDS011;61314;53.444;9.902;2023-02-17T02:40:04;35.00;;;27.58;;
3997;SDS011;61314;53.444;9.902;2023-02-17T02:42:32;36.03;;;27.80;;
3997;SDS011;61314;53.444;9.902;2023-02-17T02:45:01;34.88;;;26.92;;
3997;SDS011;61314;53.444;9.902;2023-02-17T02:47:39;32.38;;;24.85;;
3997;SDS011;61314;53.444;9.902;2023-02-17T02:50:07;31.40;;;24.45;;
3997;SDS011;61314;53.444;9.902;2023-02-17T02:52:41;33.22;;;26.15;;
3997;SDS011;61314;53.444;9.902;2023-02-17T02:55:26;33.55;;;25.50;;
3997;SDS011;61314;53.444;9.902;2023-02-17T02:58:02;33.30;;;25.27;;
3997;SDS011;61314;53.444;9.902;2023-02-17T03:00:34;30.33;;;24.67;;
3997;SDS011;61314;53.444;9.902;2023-02-17T03:03:07;32.47;;;25.75;;
3997;SDS011;61314;53.444;9.902;2023-02-17T03:05:48;30.05;;;24.60;;
3997;SDS011;61314;53.444;9.902;2023-02-17T03:08:27;30.67;;;23.30;;
3997;SDS011;61314;53.444;9.902;2023-02-17T03:10:57;30.02;;;24.55;;
3997;SDS011;61314;53.444;9.902;2023-02-17T03:13:25;35.83;;;25.92;;
3997;SDS011;61314;53.444;9.902;2023-02-17T03:15:52;30.08;;;24.23;;
3997;SDS011;61314;53.444;9.902;2023-02-17T03:18:19;35.88;;;25.52;;
3997;SDS011;61314;53.444;9.902;2023-02-17T03:20:50;32.38;;;24.35;;
3997;SDS011;61314;53.444;9.902;2023-02-17T03:23:18;31.15;;;23.75;;
3997;SDS011;61314;53.444;9.902;2023-02-17T03:25:45;32.05;;;25.48;;
3997;SDS011;61314;53.444;9.902;2023-02-17T03:28:13;31.13;;;24.17;;
3997;SDS011;61314;53.444;9.902;2023-02-17T03:30:40;30.35;;;23.25;;
3997;SDS011;61314;53.444;9.902;2023-02-17T03:33:07;33.40;;;23.40;;
3997;SDS011;61314;53.444;9.902;2023-02-17T03:35:34;30.25;;;23.63;;
3997;SDS011;61314;53.444;9.902;2023-02-17T03:38:01;30.83;;;22.48;;
3997;SDS011;61314;53.444;9.902;2023-02-17T03:40:28;29.23;;;21.30;;
3997;SDS011;61314;53.444;9.902;2023-02-17T03:42:55;27.48;;;21.00;;
3997;SDS011;61314;53.444;9.902;2023-02-17T03:45:23;28.27;;;21.55;;
3997;SDS011;61314;53.444;9.902;2023-02-17T03:47:50;26.55;;;21.98;;
3997;SDS011;61314;53.444;9.902;2023-02-17T03:50:17;25.83;;;20.90;;
3997;SDS011;61314;53.444;9.902;2023-02-17T03:52:44;28.60;;;22.08;;
3997;SDS011;61314;53.444;9.902;2023-02-17T03:55:11;25.30;;;19.55;;
3997;SDS011;61314;53.444;9.902;2023-02-17T03:57:38;25.05;;;19.45;;
3997;SDS011;61314;53.444;9.902;2023-02-17T04:00:06;26.20;;;19.85;;
3997;SDS011;61314;53.444;9.902;2023-02-17T04:02:34;24.40;;;19.90;;
3997;SDS011;61314;53.444;9.902;2023-02-17T04:05:01;23.70;;;19.48;;
3997;SDS011;61314;53.444;9.902;2023-02-17T04:07:28;25.75;;;20.13;;
3997;SDS011;61314;53.444;9.902;2023-02-17T04:09:55;24.55;;;19.30;;
3997;SDS011;61314;53.444;9.902;2023-02-17T04:12:22;23.15;;;17.92;;
3997;SDS011;61314;53.444;9.902;2023-02-17T04:14:49;22.90;;;18.17;;
3997;SDS011;61314;53.444;9.902;2023-02-17T04:17:16;28.35;;;19.73;;
3997;SDS011;61314;53.444;9.902;2023-02-17T04:19:43;26.52;;;19.67;;
3997;SDS011;61314;53.444;9.902;2023-02-17T04:22:10;25.67;;;19.13;;
3997;SDS011;61314;53.444;9.902;2023-02-17T04:24:38;28.00;;;21.20;;
3997;SDS011;61314;53.444;9.902;2023-02-17T04:27:04;31.08;;;21.42;;
3997;SDS011;61314;53.444;9.902;2023-02-17T04:29:32;33.90;;;23.90;;
3997;SDS011;61314;53.444;9.902;2023-02-17T04:31:59;33.85;;;22.80;;
3997;SDS011;61314;53.444;9.902;2023-02-17T04:34:26;29.30;;;22.50;;
3997;SDS011;61314;53.444;9.902;2023-02-17T04:36:53;29.90;;;21.40;;
3997;SDS011;61314;53.444;9.902;2023-02-17T04:39:20;32.65;;;21.52;;
3997;SDS011;61314;53.444;9.902;2023-02-17T04:41:47;31.80;;;21.52;;
3997;SDS011;61314;53.444;9.902;2023-02-17T04:44:14;30.67;;;22.33;;
3997;SDS011;61314;53.444;9.902;2023-02-17T04:46:41;31.35;;;23.25;;
3997;SDS011;61314;53.444;9.902;2023-02-17T04:49:08;32.47;;;21.73;;
3997;SDS011;61314;53.444;9.902;2023-02-17T04:51:35;32.95;;;22.77;;
3997;SDS011;61314;53.444;9.902;2023-02-17T04:54:03;33.25;;;22.20;;
3997;SDS011;61314;53.444;9.902;2023-02-17T04:56:30;32.03;;;22.55;;
3997;SDS011;61314;53.444;9.902;2023-02-17T04:58:57;33.28;;;22.80;;
3997;SDS011;61314;53.444;9.902;2023-02-17T05:01:23;36.08;;;22.83;;
3997;SDS011;61314;53.444;9.902;2023-02-17T05:03:51;40.45;;;25.75;;
3997;SDS011;61314;53.444;9.902;2023-02-17T05:06:17;39.15;;;24.10;;
3997;SDS011;61314;53.444;9.902;2023-02-17T05:08:44;40.13;;;27.33;;
3997;SDS011;61314;53.444;9.902;2023-02-17T05:11:13;35.30;;;23.50;;
3997;SDS011;61314;53.444;9.902;2023-02-17T05:13:40;41.28;;;25.08;;
3997;SDS011;61314;53.444;9.902;2023-02-17T05:16:07;44.70;;;27.23;;
3997;SDS011;61314;53.444;9.902;2023-02-17T05:18:34;47.35;;;29.60;;
3997;SDS011;61314;53.444;9.902;2023-02-17T05:21:01;49.10;;;27.27;;
3997;SDS011;61314;53.444;9.902;2023-02-17T05:23:28;47.40;;;28.50;;
3997;SDS011;61314;53.444;9.902;2023-02-17T05:25:55;53.05;;;30.58;;
3997;SDS011;61314;53.444;9.902;2023-02-17T05:28:22;49.85;;;28.08;;
3997;SDS011;61314;53.444;9.902;2023-02-17T05:30:49;49.47;;;29.83;;
3997;SDS011;61314;53.444;9.902;2023-02-17T05:33:16;53.83;;;30.90;;
3997;SDS011;61314;53.444;9.902;2023-02-17T05:35:43;60.90;;;32.88;;
3997;SDS011;61314;53.444;9.902;2023-02-17T05:38:10;64.45;;;34.03;;
3997;SDS011;61314;53.444;9.902;2023-02-17T05:40:37;56.95;;;31.50;;
3997;SDS011;61314;53.444;9.902;2023-02-17T05:43:04;53.67;;;31.58;;
3997;SDS011;61314;53.444;9.902;2023-02-17T05:45:31;51.60;;;31.77;;
3997;SDS011;61314;53.444;9.902;2023-02-17T05:47:58;53.75;;;30.30;;
3997;SDS011;61314;53.444;9.902;2023-02-17T05:50:26;52.75;;;30.23;;
3997;SDS011;61314;53.444;9.902;2023-02-17T05:52:53;55.33;;;29.85;;
3997;SDS011;61314;53.444;9.902;2023-02-17T05:55:20;51.42;;;29.00;;
3997;SDS011;61314;53.444;9.902;2023-02-17T05:57:47;47.38;;;27.52;;
3997;SDS011;61314;53.444;9.902;2023-02-17T06:00:14;46.88;;;28.02;;
3997;SDS011;61314;53.444;9.902;2023-02-17T06:02:41;49.85;;;28.40;;
3997;SDS011;61314;53.444;9.902;2023-02-17T06:05:08;49.47;;;27.67;;
3997;SDS011;61314;53.444;9.902;2023-02-17T06:07:36;49.75;;;29.92;;
3997;SDS011;61314;53.444;9.902;2023-02-17T06:10:03;50.97;;;28.77;;
3997;SDS011;61314;53.444;9.902;2023-02-17T06:12:30;50.70;;;29.02;;
3997;SDS011;61314;53.444;9.902;2023-02-17T06:14:57;55.60;;;32.75;;
3997;SDS011;61314;53.444;9.902;2023-02-17T06:17:25;50.53;;;31.08;;
3997;SDS011;61314;53.444;9.902;2023-02-17T06:19:52;56.28;;;31.65;;
3997;SDS011;61314;53.444;9.902;2023-02-17T06:22:19;53.53;;;31.27;;
3997;SDS011;61314;53.444;9.902;2023-02-17T06:24:46;56.33;;;32.83;;
3997;SDS011;61314;53.444;9.902;2023-02-17T06:27:13;61.45;;;32.70;;
3997;SDS011;61314;53.444;9.902;2023-02-17T06:29:39;55.35;;;32.10;;
3997;SDS011;61314;53.444;9.902;2023-02-17T06:32:06;58.28;;;32.08;;
3997;SDS011;61314;53.444;9.902;2023-02-17T06:34:33;60.72;;;32.78;;
3997;SDS011;61314;53.444;9.902;2023-02-17T06:37:00;55.85;;;31.85;;
3997;SDS011;61314;53.444;9.902;2023-02-17T06:39:27;56.65;;;32.28;;
3997;SDS011;61314;53.444;9.902;2023-02-17T06:41:54;57.50;;;32.83;;
3997;SDS011;61314;53.444;9.902;2023-02-17T06:44:21;60.22;;;34.17;;
3997;SDS011;61314;53.444;9.902;2023-02-17T06:46:48;59.17;;;33.30;;
3997;SDS011;61314;53.444;9.902;2023-02-17T06:49:15;66.00;;;33.42;;
3997;SDS011;61314;53.444;9.902;2023-02-17T06:51:42;54.83;;;30.73;;
3997;SDS011;61314;53.444;9.902;2023-02-17T06:54:09;65.32;;;34.42;;
3997;SDS011;61314;53.444;9.902;2023-02-17T06:56:36;64.72;;;33.25;;
3997;SDS011;61314;53.444;9.902;2023-02-17T06:59:03;64.40;;;32.40;;
3997;SDS011;61314;53.444;9.902;2023-02-17T07:01:30;65.90;;;33.40;;
3997;SDS011;61314;53.444;9.902;2023-02-17T07:03:57;65.55;;;33.10;;
3997;SDS011;61314;53.444;9.902;2023-02-17T07:06:24;61.65;;;32.33;;
3997;SDS011;61314;53.444;9.902;2023-02-17T07:08:52;73.80;;;36.17;;
3997;SDS011;61314;53.444;9.902;2023-02-17T07:11:19;62.47;;;33.28;;
3997;SDS011;61314;53.444;9.902;2023-02-17T07:13:46;65.13;;;33.75;;
3997;SDS011;61314;53.444;9.902;2023-02-17T07:16:13;69.38;;;36.08;;
3997;SDS011;61314;53.444;9.902;2023-02-17T07:18:41;58.85;;;34.50;;
3997;SDS011;61314;53.444;9.902;2023-02-17T07:21:08;65.68;;;33.30;;
3997;SDS011;61314;53.444;9.902;2023-02-17T07:23:35;58.92;;;32.58;;
3997;SDS011;61314;53.444;9.902;2023-02-17T07:26:07;64.35;;;33.55;;
3997;SDS011;61314;53.444;9.902;2023-02-17T07:28:35;63.80;;;32.25;;
3997;SDS011;61314;53.444;9.902;2023-02-17T07:31:06;62.63;;;33.10;;
3997;SDS011;61314;53.444;9.902;2023-02-17T07:33:33;65.18;;;34.90;;
3997;SDS011;61314;53.444;9.902;2023-02-17T07:36:04;60.00;;;33.30;;
3997;SDS011;61314;53.444;9.902;2023-02-17T07:38:32;63.63;;;32.95;;
3997;SDS011;61314;53.444;9.902;2023-02-17T07:41:03;62.90;;;34.22;;
3997;SDS011;61314;53.444;9.902;2023-02-17T07:43:31;62.67;;;33.55;;
3997;SDS011;61314;53.444;9.902;2023-02-17T07:45:58;67.53;;;33.03;;
3997;SDS011;61314;53.444;9.902;2023-02-17T07:48:25;62.55;;;33.35;;
3997;SDS011;61314;53.444;9.902;2023-02-17T07:50:52;64.03;;;33.50;;
3997;SDS011;61314;53.444;9.902;2023-02-17T07:53:19;60.10;;;32.65;;
3997;SDS011;61314;53.444;9.902;2023-02-17T07:55:46;61.40;;;32.80;;
3997;SDS011;61314;53.444;9.902;2023-02-17T07:58:13;54.33;;;31.67;;
3997;SDS011;61314;53.444;9.902;2023-02-17T08:00:40;56.53;;;32.95;;
3997;SDS011;61314;53.444;9.902;2023-02-17T08:03:08;51.05;;;28.67;;
3997;SDS011;61314;53.444;9.902;2023-02-17T08:05:37;55.13;;;30.67;;
3997;SDS011;61314;53.444;9.902;2023-02-17T08:08:04;47.90;;;26.88;;
3997;SDS011;61314;53.444;9.902;2023-02-17T08:10:50;45.55;;;26.83;;
3997;SDS011;61314;53.444;9.902;2023-02-17T08:13:36;46.22;;;26.27;;
3997;SDS011;61314;53.444;9.902;2023-02-17T08:16:03;46.72;;;26.90;;
3997;SDS011;61314;53.444;9.902;2023-02-17T08:18:31;52.95;;;28.90;;
3997;SDS011;61314;53.444;9.902;2023-02-17T08:21:01;45.00;;;24.73;;
3997;SDS011;61314;53.444;9.902;2023-02-17T08:23:29;48.75;;;28.00;;
3997;SDS011;61314;53.444;9.902;2023-02-17T08:25:56;42.28;;;24.13;;
3997;SDS011;61314;53.444;9.902;2023-02-17T08:28:24;46.55;;;25.50;;
3997;SDS011;61314;53.444;9.902;2023-02-17T08:30:51;44.58;;;24.80;;
3997;SDS011;61314;53.444;9.902;2023-02-17T08:33:18;39.67;;;22.92;;
3997;SDS011;61314;53.444;9.902;2023-02-17T08:35:46;42.95;;;23.27;;
3997;SDS011;61314;53.444;9.902;2023-02-17T08:38:13;42.20;;;23.08;;
3997;SDS011;61314;53.444;9.902;2023-02-17T08:40:40;48.53;;;23.30;;
3997;SDS011;61314;53.444;9.902;2023-02-17T08:43:07;42.78;;;23.02;;
3997;SDS011;61314;53.444;9.902;2023-02-17T08:45:34;38.33;;;22.33;;
3997;SDS011;61314;53.444;9.902;2023-02-17T08:48:02;40.38;;;22.08;;
3997;SDS011;61314;53.444;9.902;2023-02-17T08:50:30;53.85;;;23.38;;
3997;SDS011;61314;53.444;9.902;2023-02-17T08:52:57;40.22;;;22.60;;
3997;SDS011;61314;53.444;9.902;2023-02-17T08:55:24;38.22;;;22.50;;
3997;SDS011;61314;53.444;9.902;2023-02-17T08:57:51;41.05;;;22.17;;
3997;SDS011;61314;53.444;9.902;2023-02-17T09:00:19;34.88;;;21.45;;
3997;SDS011;61314;53.444;9.902;2023-02-17T09:02:46;39.30;;;21.88;;
3997;SDS011;61314;53.444;9.902;2023-02-17T09:05:13;35.45;;;21.33;;
3997;SDS011;61314;53.444;9.902;2023-02-17T09:07:40;40.50;;;22.23;;
3997;SDS011;61314;53.444;9.902;2023-02-17T09:10:08;38.05;;;20.83;;
3997;SDS011;61314;53.444;9.902;2023-02-17T09:12:35;37.70;;;20.92;;
3997;SDS011;61314;53.444;9.902;2023-02-17T09:15:02;38.92;;;21.75;;
3997;SDS011;61314;53.444;9.902;2023-02-17T09:17:29;29.50;;;18.65;;
3997;SDS011;61314;53.444;9.902;2023-02-17T09:19:56;30.17;;;18.98;;
3997;SDS011;61314;53.444;9.902;2023-02-17T09:22:23;30.25;;;17.85;;
3997;SDS011;61314;53.444;9.902;2023-02-17T09:24:57;35.80;;;18.15;;
3997;SDS011;61314;53.444;9.902;2023-02-17T09:27:24;34.88;;;18.83;;
3997;SDS011;61314;53.444;9.902;2023-02-17T09:29:51;33.85;;;20.25;;
3997;SDS011;61314;53.444;9.902;2023-02-17T09:32:18;41.20;;;19.20;;
3997;SDS011;61314;53.444;9.902;2023-02-17T09:34:45;35.53;;;17.52;;
3997;SDS011;61314;53.444;9.902;2023-02-17T09:37:16;31.73;;;18.20;;
3997;SDS011;61314;53.444;9.902;2023-02-17T09:39:43;38.15;;;18.70;;
3997;SDS011;61314;53.444;9.902;2023-02-17T09:42:20;33.40;;;17.95;;
3997;SDS011;61314;53.444;9.902;2023-02-17T09:44:49;35.45;;;18.20;;
3997;SDS011;61314;53.444;9.902;2023-02-17T09:47:21;31.00;;;17.42;;
3997;SDS011;61314;53.444;9.902;2023-02-17T09:49:51;29.05;;;16.90;;
3997;SDS011;61314;53.444;9.902;2023-02-17T09:52:39;29.02;;;16.50;;
3997;SDS011;61314;53.444;9.902;2023-02-17T09:55:14;26.77;;;16.23;;
3997;SDS011;61314;53.444;9.902;2023-02-17T09:58:05;24.73;;;14.80;;
3997;SDS011;61314;53.444;9.902;2023-02-17T10:00:40;30.15;;;17.52;;
3997;SDS011;61314;53.444;9.902;2023-02-17T10:03:19;25.40;;;15.60;;
3997;SDS011;61314;53.444;9.902;2023-02-17T10:05:54;26.67;;;14.38;;
3997;SDS011;61314;53.444;9.902;2023-02-17T10:08:26;21.88;;;13.95;;
3997;SDS011;61314;53.444;9.902;2023-02-17T10:10:58;26.02;;;14.98;;
3997;SDS011;61314;53.444;9.902;2023-02-17T10:13:28;23.33;;;14.38;;
3997;SDS011;61314;53.444;9.902;2023-02-17T10:15:57;29.38;;;15.25;;
3997;SDS011;61314;53.444;9.902;2023-02-17T10:18:30;32.60;;;20.60;;
3997;SDS011;61314;53.444;9.902;2023-02-17T10:20:59;28.45;;;15.52;;
3997;SDS011;61314;53.444;9.902;2023-02-17T10:23:30;32.95;;;17.52;;
3997;SDS011;61314;53.444;9.902;2023-02-17T10:31:02;39.28;;;18.08;;
3997;SDS011;61314;53.444;9.902;2023-02-17T10:38:49;38.58;;;20.45;;
3997;SDS011;61314;53.444;9.902;2023-02-17T10:41:25;40.15;;;21.63;;
3997;SDS011;61314;53.444;9.902;2023-02-17T10:43:53;44.03;;;21.85;;
3997;SDS011;61314;53.444;9.902;2023-02-17T10:46:22;47.17;;;22.75;;
3997;SDS011;61314;53.444;9.902;2023-02-17T10:48:54;44.53;;;21.88;;
3997;SDS011;61314;53.444;9.902;2023-02-17T10:51:25;40.30;;;23.80;;
3997;SDS011;61314;53.444;9.902;2023-02-17T10:54:11;53.25;;;23.02;;
3997;SDS011;61314;53.444;9.902;2023-02-17T10:56:42;46.97;;;24.30;;
3997;SDS011;61314;53.444;9.902;2023-02-17T10:59:16;49.67;;;23.17;;
3997;SDS011;61314;53.444;9.902;2023-02-17T11:01:47;42.38;;;21.55;;
3997;SDS011;61314;53.444;9.902;2023-02-17T11:04:14;41.88;;;22.55;;
3997;SDS011;61314;53.444;9.902;2023-02-17T11:06:47;41.53;;;22.65;;
3997;SDS011;61314;53.444;9.902;2023-02-17T11:09:21;45.25;;;22.55;;
3997;SDS011;61314;53.444;9.902;2023-02-17T11:12:10;46.90;;;24.40;;
3997;SDS011;61314;53.444;9.902;2023-02-17T11:14:42;52.58;;;23.20;;
3997;SDS011;61314;53.444;9.902;2023-02-17T11:17:14;49.70;;;23.42;;
3997;SDS011;61314;53.444;9.902;2023-02-17T11:19:52;46.35;;;24.48;;
3997;SDS011;61314;53.444;9.902;2023-02-17T11:22:31;53.63;;;25.00;;
3997;SDS011;61314;53.444;9.902;2023-02-17T11:24:59;46.30;;;24.77;;
3997;SDS011;61314;53.444;9.902;2023-02-17T11:27:26;47.40;;;24.30;;
3997;SDS011;61314;53.444;9.902;2023-02-17T11:30:03;52.05;;;27.17;;
3997;SDS011;61314;53.444;9.902;2023-02-17T11:32:30;52.80;;;25.80;;
3997;SDS011;61314;53.444;9.902;2023-02-17T11:34:58;57.67;;;26.60;;
3997;SDS011;61314;53.444;9.902;2023-02-17T11:37:31;51.92;;;26.40;;
3997;SDS011;61314;53.444;9.902;2023-02-17T11:39:59;51.60;;;27.35;;
3997;SDS011;61314;53.444;9.902;2023-02-17T11:42:27;50.80;;;25.58;;
3997;SDS011;61314;53.444;9.902;2023-02-17T11:44:56;52.13;;;26.42;;
3997;SDS011;61314;53.444;9.902;2023-02-17T11:55:49;50.10;;;26.67;;
3997;SDS011;61314;53.444;9.902;2023-02-17T11:58:26;48.80;;;26.23;;
3997;SDS011;61314;53.444;9.902;2023-02-17T12:06:01;48.65;;;24.50;;
3997;SDS011;61314;53.444;9.902;2023-02-17T12:08:47;45.63;;;23.55;;
3997;SDS011;61314;53.444;9.902;2023-02-17T12:11:31;46.25;;;22.58;;
3997;SDS011;61314;53.444;9.902;2023-02-17T12:16:53;45.00;;;19.63;;
3997;SDS011;61314;53.444;9.902;2023-02-17T12:21:57;34.72;;;17.77;;
3997;SDS011;61314;53.444;9.902;2023-02-17T12:24:40;35.85;;;18.17;;
3997;SDS011;61314;53.444;9.902;2023-02-17T12:27:14;41.00;;;18.48;;
3997;SDS011;61314;53.444;9.902;2023-02-17T12:29:54;38.65;;;18.58;;
3997;SDS011;61314;53.444;9.902;2023-02-17T12:32:31;35.60;;;16.45;;
3997;SDS011;61314;53.444;9.902;2023-02-17T12:35:02;37.55;;;17.45;;
3997;SDS011;61314;53.444;9.902;2023-02-17T12:37:38;30.95;;;15.90;;
3997;SDS011;61314;53.444;9.902;2023-02-17T12:40:27;29.50;;;16.95;;
3997;SDS011;61314;53.444;9.902;2023-02-17T12:42:59;37.42;;;17.63;;
3997;SDS011;61314;53.444;9.902;2023-02-17T12:45:34;37.22;;;16.58;;
3997;SDS011;61314;53.444;9.902;2023-02-17T12:48:04;32.30;;;16.42;;
3997;SDS011;61314;53.444;9.902;2023-02-17T12:50:34;30.52;;;17.20;;
3997;SDS011;61314;53.444;9.902;2023-02-17T12:53:08;28.20;;;15.85;;
3997;SDS011;61314;53.444;9.902;2023-02-17T12:55:42;28.45;;;15.05;;
3997;SDS011;61314;53.444;9.902;2023-02-17T12:58:20;31.15;;;16.40;;
3997;SDS011;61314;53.444;9.902;2023-02-17T13:01:05;26.55;;;14.10;;
3997;SDS011;61314;53.444;9.902;2023-02-17T13:03:34;26.25;;;13.77;;
3997;SDS011;61314;53.444;9.902;2023-02-17T13:06:21;25.10;;;12.20;;
3997;SDS011;61314;53.444;9.902;2023-02-17T13:08:51;28.27;;;14.10;;
3997;SDS011;61314;53.444;9.902;2023-02-17T13:11:30;20.73;;;12.25;;
3997;SDS011;61314;53.444;9.902;2023-02-17T13:16:44;15.80;;;11.30;;
3997;SDS011;61314;53.444;9.902;2023-02-17T13:19:13;16.35;;;10.85;;
3997;SDS011;61314;53.444;9.902;2023-02-17T13:21:53;15.40;;;10.60;;
3997;SDS011;61314;53.444;9.902;2023-02-17T13:24:37;16.23;;;9.55;;
3997;SDS011;61314;53.444;9.902;2023-02-17T13:27:11;12.90;;;8.52;;
3997;SDS011;61314;53.444;9.902;2023-02-17T13:29:39;14.88;;;8.98;;
3997;SDS011;61314;53.444;9.902;2023-02-17T13:32:07;20.35;;;9.00;;
3997;SDS011;61314;53.444;9.902;2023-02-17T13:34:37;21.95;;;10.40;;
3997;SDS011;61314;53.444;9.902;2023-02-17T13:39:50;18.25;;;11.50;;
3997;SDS011;61314;53.444;9.902;2023-02-17T13:42:28;22.80;;;11.57;;
3997;SDS011;61314;53.444;9.902;2023-02-17T13:44:58;25.42;;;10.85;;
3997;SDS011;61314;53.444;9.902;2023-02-17T13:47:29;17.17;;;11.65;;
3997;SDS011;61314;53.444;9.902;2023-02-17T13:50:02;20.77;;;12.20;;
3997;SDS011;61314;53.444;9.902;2023-02-17T13:52:30;19.30;;;10.98;;
3997;SDS011;61314;53.444;9.902;2023-02-17T13:54:58;25.15;;;11.82;;
3997;SDS011;61314;53.444;9.902;2023-02-17T13:57:27;15.05;;;11.63;;
3997;SDS011;61314;53.444;9.902;2023-02-17T14:02:49;20.48;;;11.23;;
3997;SDS011;61314;53.444;9.902;2023-02-17T14:05:39;26.58;;;12.40;;
3997;SDS011;61314;53.444;9.902;2023-02-17T14:08:05;17.42;;;10.68;;
3997;SDS011;61314;53.444;9.902;2023-02-17T14:10:33;19.65;;;12.25;;
3997;SDS011;61314;53.444;9.902;2023-02-17T14:13:00;24.02;;;12.30;;
3997;SDS011;61314;53.444;9.902;2023-02-17T14:15:27;15.82;;;10.35;;
3997;SDS011;61314;53.444;9.902;2023-02-17T14:17:55;21.73;;;10.10;;
3997;SDS011;61314;53.444;9.902;2023-02-17T14:20:32;23.58;;;10.18;;
3997;SDS011;61314;53.444;9.902;2023-02-17T14:25:30;12.52;;;8.75;;
3997;SDS011;61314;53.444;9.902;2023-02-17T14:27:58;19.52;;;9.07;;
3997;SDS011;61314;53.444;9.902;2023-02-17T14:30:29;24.33;;;9.77;;
3997;SDS011;61314;53.444;9.902;2023-02-17T14:33:30;13.20;;;7.18;;
3997;SDS011;61314;53.444;9.902;2023-02-17T14:35:56;20.42;;;7.80;;
3997;SDS011;61314;53.444;9.902;2023-02-17T14:38:26;23.65;;;7.85;;
3997;SDS011;61314;53.444;9.902;2023-02-17T14:40:53;11.75;;;7.10;;
3997;SDS011;61314;53.444;9.902;2023-02-17T14:43:21;17.98;;;7.80;;
3997;SDS011;61314;53.444;9.902;2023-02-17T14:45:48;16.20;;;7.03;;
3997;SDS011;61314;53.444;9.902;2023-02-17T14:48:16;15.15;;;6.85;;
3997;SDS011;61314;53.444;9.902;2023-02-17T14:50:43;21.25;;;7.63;;
3997;SDS011;61314;53.444;9.902;2023-02-17T14:53:24;14.97;;;6.13;;
3997;SDS011;61314;53.444;9.902;2023-02-17T14:55:59;8.23;;;4.85;;
3997;SDS011;61314;53.444;9.902;2023-02-17T14:58:27;11.30;;;5.80;;
3997;SDS011;61314;53.444;9.902;2023-02-17T15:00:54;9.90;;;4.70;;
3997;SDS011;61314;53.444;9.902;2023-02-17T15:03:21;10.40;;;4.28;;
3997;SDS011;61314;53.444;9.902;2023-02-17T15:05:48;13.10;;;3.63;;
3997;SDS011;61314;53.444;9.902;2023-02-17T15:08:17;13.77;;;3.10;;
3997;SDS011;61314;53.444;9.902;2023-02-17T15:10:45;13.33;;;2.80;;
3997;SDS011;61314;53.444;9.902;2023-02-17T15:13:16;10.40;;;2.97;;
3997;SDS011;61314;53.444;9.902;2023-02-17T15:15:43;14.27;;;2.65;;
3997;SDS011;61314;53.444;9.902;2023-02-17T15:18:13;9.83;;;3.40;;
3997;SDS011;61314;53.444;9.902;2023-02-17T15:20:41;17.67;;;3.33;;
3997;SDS011;61314;53.444;9.902;2023-02-17T15:23:13;16.05;;;3.20;;
3997;SDS011;61314;53.444;9.902;2023-02-17T15:25:40;18.60;;;3.90;;
3997;SDS011;61314;53.444;9.902;2023-02-17T15:28:10;20.15;;;3.95;;
3997;SDS011;61314;53.444;9.902;2023-02-17T15:30:37;17.15;;;3.97;;
3997;SDS011;61314;53.444;9.902;2023-02-17T15:33:11;12.95;;;3.00;;
3997;SDS011;61314;53.444;9.902;2023-02-17T15:35:39;17.45;;;3.83;;